No particular awareness of the weather is required.    There are no Weather-warnings

Nearby METAR Reports

  
ENBR - Bergen/Flesland, Norway
Distance from station: E 6km
Updated: 27-04-2018 09:50
Mostly Cloudy
Mostly Cloudy  
 Wind from SSE
Wind: SSE 15 km/h
Temperature:  6°C
Wind Chill:  3°C
Dew Point:  5°C
Humidity:  93%
Barometer:  1005 hPa
Clouds:  Mostly Cloudy
Visibility:  10 km
Cloud details:  Few Clouds 274 m
Partly Cloudy 366 m
Few Clouds 549 m
Mostly Cloudy 914 m
2018/04/27 07:50 ENBR 270750Z 15008KT 9999 FEW009 SCT012 FEW018CB BKN030 06/05 Q1005 RMK WIND 1200FT 14011KT
ENSO - Stord/Soerstokke, Norway
Distance from station: SSE 56km
Updated: 27-04-2018 09:50
Mostly Cloudy
Mostly Cloudy  
 Wind from SSE
Wind: SSE 13 km/h
Temperature:  6°C
Wind Chill:  3°C
Dew Point:  5°C
Humidity:  93%
Barometer:  1005 hPa
Clouds:  Mostly Cloudy
Visibility:  10 km
Cloud details:  Few Clouds 213 m
Partly Cloudy 366 m
Partly Cloudy 61 m
Mostly Cloudy 1158 m
2018/04/27 07:50 ENSO 270750Z 15007KT 9999 FEW007 SCT012 SCT002TCU BKN038 06/05 Q1005
ENQA - Troll-A Heli, Norway
Distance from station: WNW 87km
Updated: 27-04-2018 09:50
Overcast
Overcast  
 Wind from S
Wind: S 17 km/h
Temperature:  7°C
Wind Chill:  4°C
Dew Point:  4°C
Humidity:  81%
Barometer:  1004 hPa
Clouds:  Overcast
Visibility:  16 miles
Cloud details:  Overcast 1158 m
2018/04/27 07:50 ENQA 270750Z AUTO 19009KT 9999NDV OVC038/// 07/04 Q1004 W04/S4
ENHD - Haugesund/Karmoy, Norway
Distance from station: S 103km
Updated: 27-04-2018 09:50
Mostly Cloudy
Mostly Cloudy  
 Wind from SSW
Wind: SSW 7 km/h
Temperature:  7°C
Wind Chill:  6°C
Dew Point:  4°C
Humidity:  81%
Barometer:  1005 hPa
Clouds:  Mostly Cloudy
Visibility:  10 km
Cloud details:  Few Clouds 396 m
Few Clouds 457 m
Mostly Cloudy 1097 m
2018/04/27 07:50 ENHD 270750Z 20004KT 160V250 9999 FEW013 FEW015CB BKN036 07/04 Q1005 RERA
ENQC - Troll-C Heli, Norway
Distance from station: NW 106km
Updated: 27-04-2018 09:50
Mostly Cloudy
Mostly Cloudy  
 Wind from S
Wind: S 15 km/h
Temperature:  7°C
Wind Chill:  4°C
Dew Point:  4°C
Humidity:  81%
Barometer:  1004 hPa
Clouds:  Mostly Cloudy
Visibility:  16 miles
Cloud details:  Mostly Cloudy 914 m
2018/04/27 07:50 ENQC 270750Z AUTO 17008KT 9999NDV BKN030/// 07/04 Q1004 W///S4
ENOA - Oseberg, Norway
Distance from station: WNW 128km
Updated: 27-04-2018 09:50
Nearby showers, Mostly Cloudy
Nearby showers, Mostly Cloudy  
 Wind from SW
Wind: SW 9 km/h
Temperature:  7°C
Wind Chill:  6°C
Dew Point:  2°C
Humidity:  71%
Barometer:  1004 hPa
Summary:  Nearby Showers
Clouds:  Mostly Cloudy
Visibility:  10 km
Cloud details:  Few Clouds 457 m
Mostly Cloudy 914 m
2018/04/27 07:50 ENOA 270750Z 23005KT 9999 VCSH FEW015TCU BKN030 07/02 Q1004 W///S3
ENBL - Forde/Bringeland, Norway
Distance from station: NNE 130km
Updated: 27-04-2018 09:50
Mostly Cloudy
Mostly Cloudy  
 Wind from SSW
Wind: SSW 11 km/h
Temperature:  5°C
Wind Chill:  2°C
Dew Point:  2°C
Humidity:  81%
Barometer:  1003 hPa
Clouds:  Mostly Cloudy
Visibility:  10 km
Cloud details:  Few Clouds 30 m
Partly Cloudy 427 m
Mostly Cloudy 792 m
2018/04/27 07:50 ENBL 270750Z 20006KT 150V230 9999 FEW001 SCT014 BKN026 05/02 Q1003
ENFL - Floro, Norway
Distance from station: N 144km
Updated: 27-04-2018 09:50
Light Rain Showers, Mostly Cloudy
Light Rain Showers, Mostly Cloudy  
 Wind from SE
Wind: SE 11 km/h
Temperature:  5°C
Wind Chill:  2°C
Dew Point:  4°C
Humidity:  93%
Barometer:  1004 hPa
Summary:  Light Rain Showers
Clouds:  Mostly Cloudy
Visibility:  10 km
Cloud details:  Few Clouds 244 m
Partly Cloudy 457 m
Mostly Cloudy 549 m
2018/04/27 07:50 ENFL 270750Z 14006KT 080V210 9999 -SHRA FEW008 SCT015TCU BKN018 05/04 Q1004
ENSG - Sogndal/Haukasen, Norway
Distance from station: NE 145km
Updated: 27-04-2018 09:50

  
 Wind from WSW
Wind: WSW 9 km/h
Visibility:  10 km
2018/04/27 07:50 ENSG 270750Z 24005KT 9999 FEW/// SCT025 SCT070 05/01 Q1003 RMK WIND 3806FT 22006KT
ENZV - Stavanger/Sola(A, Norway
Distance from station: S 159km
Updated: 27-04-2018 09:50
Nearby showers, Mostly Cloudy
Nearby showers, Mostly Cloudy  
 Wind from SW
Wind: SW 13 km/h
Temperature:  8°C
Wind Chill:  6°C
Dew Point:  5°C
Humidity:  82%
Barometer:  1005 hPa
Summary:  Nearby Showers
Clouds:  Mostly Cloudy
Visibility:  10 km
Cloud details:  Few Clouds 518 m
Mostly Cloudy 1219 m
2018/04/27 07:50 ENZV 270750Z 23007KT 9999 VCSH FEW017CB BKN040 08/05 Q1005 TEMPO SHRA
ENHM - Heimdal Oilp, Norway
Distance from station: WSW 179km
Updated: 27-04-2018 09:50
Mostly Cloudy
Mostly Cloudy  
 Wind from NW
Wind: NW 39 km/h
Temperature:  6°C
Wind Chill:  1°C
Dew Point:  4°C
Humidity:  87%
Barometer:  1005 hPa
Clouds:  Mostly Cloudy
Visibility:  10 km
Cloud details:  Few Clouds 610 m
Mostly Cloudy 1372 m
2018/04/27 07:50 ENHM 270750Z 32021KT 9999 FEW020 BKN045 06/04 Q1005 W07/S4
ENSD - Sandane/Anda, Norway
Distance from station: NNE 180km
Updated: 27-04-2018 09:50
Mostly Cloudy
Mostly Cloudy  
 Wind from SSW
Wind: SSW 4 km/h
Temperature:  6°C
Dew Point:  3°C
Humidity:  81%
Barometer:  1004 hPa
Clouds:  Mostly Cloudy
Visibility:  10 km
Cloud details:  Few Clouds 792 m
Partly Cloudy 1006 m
Mostly Cloudy 1128 m
2018/04/27 07:50 ENSD 270750Z 20002KT 9999 FEW026 SCT033 BKN037 06/03 Q1004 RMK WIND 1138FT VRB02KT

Script developed by  Saratoga-weather.org Adapted for the template by  Weerstation Leuven